Terminal Aerodrome Forecast
Issued by NWS

Home | Current Version | Previous Version | Text Only | Print | Product List | Glossary On
Versions: 1 2 3 4 5 6 7 8 9 10 11 12 13 14 15 16 17
000
FTUS46 KPDT 030520
TAFALW
TAF
KALW 030520Z 0306/0406 19012G22KT P6SM OVC045
     FM031400 20010G20KT P6SM SCT050 BKN090
     FM032100 21010G20KT P6SM SCT120
     FM040300 19010G20KT P6SM VCSH SCT050 OVC080=

USA.gov is the U.S. government's official web portal to all federal, state and local government web resources and services.